VOZ801 YMML-YSSY
Flight info
| Callsign | VOZ801 |
|---|---|
| Flight time | 1h 3m |
| Altitude | 39000 |
| Route | DOSEL2/27 DOSEL Y59 TESAT |
| Aircraft | A20N/M-SDE2E3FGHIRWXY/LB1 |
Departure
| Time | 2026-04-20 12:35 |
|---|---|
| Airport | Melbourne Airport (YMML) |
Arrival
| Time | 2026-04-20 13:38 |
|---|---|
| Airport | Sydney Kingsford Smith International Airport (YSSY) |
| Time | Latitude | Longitude | Altitude | Speed | Heading |
|---|---|---|---|---|---|
| 2026-04-20 12:03 | -37.67056 | 144.84723 | 392 ft | 0 kts | 169° |
| 2026-04-20 12:04 | -37.67056 | 144.84724 | 392 ft | 0 kts | 169° |
| 2026-04-20 12:21 | -37.67041 | 144.84720 | 392 ft | 2 kts | 169° |
| 2026-04-20 12:21 | -37.67030 | 144.84717 | 392 ft | 2 kts | 169° |
| 2026-04-20 12:21 | -37.67012 | 144.84704 | 392 ft | 2 kts | 119° |
| 2026-04-20 12:22 | -37.67007 | 144.84691 | 392 ft | 2 kts | 114° |
| 2026-04-20 12:22 | -37.67001 | 144.84673 | 392 ft | 2 kts | 90° |
| 2026-04-20 12:22 | -37.67001 | 144.84652 | 392 ft | 2 kts | 81° |
| 2026-04-20 12:22 | -37.67004 | 144.84631 | 391 ft | 2 kts | 82° |
| 2026-04-20 12:23 | -37.67006 | 144.84610 | 391 ft | 2 kts | 81° |
| 2026-04-20 12:23 | -37.67009 | 144.84590 | 390 ft | 2 kts | 81° |
| 2026-04-20 12:23 | -37.67011 | 144.84569 | 390 ft | 2 kts | 82° |
| 2026-04-20 12:23 | -37.67013 | 144.84548 | 389 ft | 2 kts | 85° |
| 2026-04-20 12:24 | -37.67014 | 144.84528 | 389 ft | 2 kts | 87° |
| 2026-04-20 12:24 | -37.67015 | 144.84507 | 389 ft | 2 kts | 89° |
| 2026-04-20 12:24 | -37.67016 | 144.84486 | 389 ft | 2 kts | 81° |
| 2026-04-20 12:24 | -37.67021 | 144.84466 | 389 ft | 2 kts | 46° |
| 2026-04-20 12:25 | -37.67033 | 144.84452 | 388 ft | 2 kts | 34° |
| 2026-04-20 12:25 | -37.67048 | 144.84443 | 387 ft | 2 kts | 1° |
| 2026-04-20 12:25 | -37.67064 | 144.84446 | 387 ft | 2 kts | 353° |
| 2026-04-20 12:25 | -37.67080 | 144.84449 | 386 ft | 2 kts | 351° |
| 2026-04-20 12:26 | -37.67093 | 144.84451 | 386 ft | 1 kts | 351° |
| 2026-04-20 12:26 | -37.67094 | 144.84452 | 386 ft | 0 kts | 351° |
| 2026-04-20 12:30 | -37.67092 | 144.84451 | 386 ft | 2 kts | 352° |
| 2026-04-20 12:30 | -37.67065 | 144.84432 | 386 ft | 7 kts | 316° |
| 2026-04-20 12:30 | -37.67054 | 144.84341 | 386 ft | 14 kts | 263° |
| 2026-04-20 12:31 | -37.67012 | 144.84233 | 386 ft | 16 kts | 341° |
| 2026-04-20 12:31 | -37.66893 | 144.84213 | 388 ft | 17 kts | 353° |
| 2026-04-20 12:31 | -37.66781 | 144.84194 | 391 ft | 10 kts | 351° |
| 2026-04-20 12:31 | -37.66719 | 144.84182 | 391 ft | 8 kts | 350° |
| 2026-04-20 12:32 | -37.66658 | 144.84169 | 397 ft | 11 kts | 351° |
| 2026-04-20 12:32 | -37.66568 | 144.84195 | 401 ft | 15 kts | 32° |
| 2026-04-20 12:32 | -37.66525 | 144.84324 | 404 ft | 18 kts | 82° |
| 2026-04-20 12:32 | -37.66504 | 144.84495 | 406 ft | 20 kts | 80° |
| 2026-04-20 12:33 | -37.66484 | 144.84657 | 407 ft | 16 kts | 81° |
| 2026-04-20 12:33 | -37.66427 | 144.84765 | 410 ft | 15 kts | 32° |
| 2026-04-20 12:33 | -37.66347 | 144.84785 | 411 ft | 0 kts | 3° |
| 2026-04-20 12:34 | -37.66329 | 144.84786 | 413 ft | 6 kts | 3° |
| 2026-04-20 12:34 | -37.66271 | 144.84781 | 414 ft | 12 kts | 340° |
| 2026-04-20 12:35 | -37.66213 | 144.84607 | 408 ft | 40 kts | 275° |
| 2026-04-20 12:35 | -37.66175 | 144.83941 | 407 ft | 109 kts | 274° |
| 2026-04-20 12:35 | -37.66116 | 144.82769 | 481 ft | 151 kts | 272° |
| 2026-04-20 12:35 | -37.66070 | 144.81447 | 1116 ft | 151 kts | 273° |
| 2026-04-20 12:36 | -37.66011 | 144.80102 | 1730 ft | 157 kts | 274° |
| 2026-04-20 12:36 | -37.65914 | 144.78705 | 2271 ft | 167 kts | 275° |
| 2026-04-20 12:36 | -37.65801 | 144.77163 | 2678 ft | 186 kts | 275° |
| 2026-04-20 12:36 | -37.65685 | 144.75443 | 3156 ft | 206 kts | 275° |
| 2026-04-20 12:37 | -37.65567 | 144.73543 | 3680 ft | 228 kts | 275° |
| 2026-04-20 12:37 | -37.65444 | 144.71468 | 4321 ft | 248 kts | 275° |
| 2026-04-20 12:37 | -37.65311 | 144.69218 | 5046 ft | 263 kts | 276° |
| 2026-04-20 12:37 | -37.64849 | 144.66988 | 6027 ft | 265 kts | 298° |
| 2026-04-20 12:38 | -37.63640 | 144.65235 | 6977 ft | 271 kts | 324° |
| 2026-04-20 12:38 | -37.61899 | 144.64285 | 7877 ft | 277 kts | 342° |
| 2026-04-20 12:38 | -37.60032 | 144.63604 | 8804 ft | 282 kts | 343° |
| 2026-04-20 12:38 | -37.58129 | 144.62917 | 9764 ft | 287 kts | 342° |
| 2026-04-20 12:39 | -37.54034 | 144.62696 | 10844 ft | 327 kts | 18° |
| 2026-04-20 12:39 | -37.52006 | 144.64173 | 11217 ft | 348 kts | 42° |
| 2026-04-20 12:39 | -37.50428 | 144.66516 | 11968 ft | 354 kts | 56° |
| 2026-04-20 12:40 | -37.49069 | 144.69128 | 12812 ft | 359 kts | 58° |
| 2026-04-20 12:40 | -37.47698 | 144.71788 | 13631 ft | 364 kts | 58° |
| 2026-04-20 12:40 | -37.46451 | 144.74580 | 14370 ft | 371 kts | 63° |
| 2026-04-20 12:40 | -37.45197 | 144.77480 | 14930 ft | 381 kts | 62° |
| 2026-04-20 12:41 | -37.43882 | 144.80402 | 15598 ft | 387 kts | 61° |
| 2026-04-20 12:41 | -37.42530 | 144.83355 | 16218 ft | 394 kts | 61° |
| 2026-04-20 12:41 | -37.41140 | 144.86374 | 16768 ft | 403 kts | 61° |
| 2026-04-20 12:41 | -37.39720 | 144.89456 | 17260 ft | 412 kts | 61° |
| 2026-04-20 12:42 | -37.38265 | 144.92610 | 17795 ft | 420 kts | 61° |
| 2026-04-20 12:42 | -37.36786 | 144.95818 | 18313 ft | 429 kts | 61° |
| 2026-04-20 12:42 | -37.35281 | 144.99081 | 18864 ft | 434 kts | 61° |
| 2026-04-20 12:42 | -37.33757 | 145.02382 | 19411 ft | 439 kts | 61° |
| 2026-04-20 12:43 | -37.32208 | 145.05734 | 19746 ft | 449 kts | 61° |
| 2026-04-20 12:43 | -37.30628 | 145.09152 | 20190 ft | 455 kts | 61° |
| 2026-04-20 12:43 | -37.29027 | 145.12612 | 20655 ft | 461 kts | 61° |
| 2026-04-20 12:43 | -37.27406 | 145.16110 | 21096 ft | 466 kts | 61° |
| 2026-04-20 12:44 | -37.25768 | 145.19641 | 21550 ft | 471 kts | 61° |
| 2026-04-20 12:44 | -37.24108 | 145.23215 | 21980 ft | 476 kts | 61° |
| 2026-04-20 12:44 | -37.22429 | 145.26829 | 22356 ft | 482 kts | 61° |
| 2026-04-20 12:44 | -37.20730 | 145.30481 | 22664 ft | 489 kts | 61° |
| 2026-04-20 12:45 | -37.19002 | 145.34189 | 22948 ft | 496 kts | 61° |
| 2026-04-20 12:45 | -37.17255 | 145.37936 | 23501 ft | 496 kts | 61° |
| 2026-04-20 12:45 | -37.15395 | 145.41498 | 24077 ft | 496 kts | 56° |
| 2026-04-20 12:45 | -37.13346 | 145.45047 | 24592 ft | 496 kts | 56° |
| 2026-04-20 12:46 | -37.11358 | 145.48504 | 25092 ft | 495 kts | 56° |
| 2026-04-20 12:46 | -37.09324 | 145.52049 | 25609 ft | 495 kts | 56° |
| 2026-04-20 12:46 | -37.07316 | 145.55546 | 26125 ft | 494 kts | 56° |
| 2026-04-20 12:46 | -37.05308 | 145.59041 | 26624 ft | 494 kts | 56° |
| 2026-04-20 12:47 | -37.03326 | 145.62483 | 27103 ft | 494 kts | 56° |
| 2026-04-20 12:47 | -37.01293 | 145.66011 | 27607 ft | 493 kts | 56° |
| 2026-04-20 12:47 | -36.99287 | 145.69489 | 28097 ft | 493 kts | 56° |
| 2026-04-20 12:47 | -36.97279 | 145.72966 | 28563 ft | 493 kts | 56° |
| 2026-04-20 12:48 | -36.95266 | 145.76446 | 29037 ft | 493 kts | 56° |
| 2026-04-20 12:48 | -36.93259 | 145.79914 | 29516 ft | 492 kts | 56° |
| 2026-04-20 12:48 | -36.91251 | 145.83379 | 29980 ft | 492 kts | 56° |
| 2026-04-20 12:48 | -36.89247 | 145.86835 | 30437 ft | 492 kts | 56° |
| 2026-04-20 12:49 | -36.87234 | 145.90302 | 30858 ft | 491 kts | 56° |
| 2026-04-20 12:49 | -36.85232 | 145.93747 | 31290 ft | 491 kts | 56° |
| 2026-04-20 12:49 | -36.83250 | 145.97153 | 31689 ft | 491 kts | 56° |
| 2026-04-20 12:49 | -36.81218 | 146.00643 | 32107 ft | 490 kts | 56° |
| 2026-04-20 12:50 | -36.79213 | 146.04083 | 32523 ft | 490 kts | 56° |
| 2026-04-20 12:50 | -36.77211 | 146.07513 | 32928 ft | 489 kts | 56° |
| 2026-04-20 12:50 | -36.75210 | 146.10939 | 33326 ft | 489 kts | 56° |
| 2026-04-20 12:50 | -36.73232 | 146.14321 | 33707 ft | 488 kts | 56° |
| 2026-04-20 12:51 | -36.71233 | 146.17737 | 34097 ft | 488 kts | 56° |
| 2026-04-20 12:51 | -36.69237 | 146.21145 | 34446 ft | 487 kts | 56° |
| 2026-04-20 12:51 | -36.67239 | 146.24552 | 34744 ft | 487 kts | 56° |
| 2026-04-20 12:51 | -36.65240 | 146.27956 | 35059 ft | 486 kts | 56° |
| 2026-04-20 12:52 | -36.63243 | 146.31355 | 35341 ft | 487 kts | 56° |
| 2026-04-20 12:52 | -36.61246 | 146.34749 | 35631 ft | 486 kts | 56° |
| 2026-04-20 12:52 | -36.59244 | 146.38149 | 35913 ft | 486 kts | 56° |
| 2026-04-20 12:52 | -36.57245 | 146.41541 | 36094 ft | 488 kts | 56° |
| 2026-04-20 12:53 | -36.55220 | 146.44974 | 36151 ft | 493 kts | 56° |
| 2026-04-20 12:53 | -36.53185 | 146.48421 | 36252 ft | 497 kts | 56° |
| 2026-04-20 12:53 | -36.51138 | 146.51882 | 36459 ft | 497 kts | 56° |
| 2026-04-20 12:53 | -36.49090 | 146.55341 | 36707 ft | 497 kts | 56° |
| 2026-04-20 12:54 | -36.47039 | 146.58803 | 36942 ft | 497 kts | 55° |
| 2026-04-20 12:54 | -36.44994 | 146.62251 | 37154 ft | 497 kts | 55° |
| 2026-04-20 12:54 | -36.42940 | 146.65711 | 37375 ft | 496 kts | 55° |
| 2026-04-20 12:54 | -36.40890 | 146.69160 | 37596 ft | 496 kts | 55° |
| 2026-04-20 12:55 | -36.38844 | 146.72600 | 37801 ft | 496 kts | 55° |
| 2026-04-20 12:55 | -36.36789 | 146.76050 | 38000 ft | 496 kts | 55° |
| 2026-04-20 12:55 | -36.34739 | 146.79490 | 38197 ft | 496 kts | 55° |
| 2026-04-20 12:55 | -36.32688 | 146.82928 | 38369 ft | 496 kts | 55° |
| 2026-04-20 12:56 | -36.30633 | 146.86369 | 38554 ft | 496 kts | 55° |
| 2026-04-20 12:56 | -36.28578 | 146.89806 | 38730 ft | 496 kts | 55° |
| 2026-04-20 12:56 | -36.26517 | 146.93250 | 38912 ft | 497 kts | 55° |
| 2026-04-20 12:56 | -36.24463 | 146.96680 | 39058 ft | 497 kts | 55° |
| 2026-04-20 12:57 | -36.22396 | 147.00127 | 39193 ft | 497 kts | 55° |
| 2026-04-20 12:57 | -36.20343 | 147.03546 | 39319 ft | 497 kts | 55° |
| 2026-04-20 12:57 | -36.18280 | 147.06983 | 39342 ft | 496 kts | 55° |
| 2026-04-20 12:58 | -36.14187 | 147.13783 | 39344 ft | 496 kts | 55° |
| 2026-04-20 12:58 | -36.10036 | 147.20664 | 39345 ft | 496 kts | 55° |
| 2026-04-20 12:59 | -36.05930 | 147.27460 | 39342 ft | 496 kts | 55° |
| 2026-04-20 12:59 | -36.01771 | 147.34331 | 39347 ft | 496 kts | 55° |
| 2026-04-20 13:00 | -35.97632 | 147.41152 | 39349 ft | 496 kts | 55° |
| 2026-04-20 13:00 | -35.93483 | 147.47978 | 39355 ft | 497 kts | 55° |
| 2026-04-20 13:01 | -35.89362 | 147.54745 | 39362 ft | 497 kts | 55° |
| 2026-04-20 13:01 | -35.85209 | 147.61551 | 39360 ft | 497 kts | 55° |
| 2026-04-20 13:02 | -35.81047 | 147.68358 | 39361 ft | 497 kts | 56° |
| 2026-04-20 13:02 | -35.76875 | 147.75167 | 39365 ft | 498 kts | 56° |
| 2026-04-20 13:03 | -35.72703 | 147.81962 | 39375 ft | 498 kts | 56° |
| 2026-04-20 13:03 | -35.68516 | 147.88769 | 39377 ft | 499 kts | 56° |
| 2026-04-20 13:04 | -35.64300 | 147.95612 | 39376 ft | 504 kts | 56° |
| 2026-04-20 13:04 | -35.60069 | 148.02462 | 39378 ft | 504 kts | 56° |
| 2026-04-20 13:05 | -35.55828 | 148.09316 | 39388 ft | 504 kts | 56° |
| 2026-04-20 13:05 | -35.51578 | 148.16171 | 39381 ft | 504 kts | 56° |
| 2026-04-20 13:06 | -35.47328 | 148.23013 | 39391 ft | 505 kts | 56° |
| 2026-04-20 13:06 | -35.43070 | 148.29855 | 39398 ft | 505 kts | 56° |
| 2026-04-20 13:07 | -35.38805 | 148.36691 | 39404 ft | 505 kts | 56° |
| 2026-04-20 13:07 | -35.34531 | 148.43531 | 39392 ft | 505 kts | 56° |
| 2026-04-20 13:08 | -35.30263 | 148.50346 | 39401 ft | 505 kts | 56° |
| 2026-04-20 13:08 | -35.26009 | 148.57127 | 39406 ft | 505 kts | 56° |
| 2026-04-20 13:09 | -35.21727 | 148.63940 | 39411 ft | 505 kts | 56° |
| 2026-04-20 13:09 | -35.17442 | 148.70744 | 39408 ft | 505 kts | 56° |
| 2026-04-20 13:10 | -35.13151 | 148.77543 | 39411 ft | 505 kts | 56° |
| 2026-04-20 13:10 | -35.08857 | 148.84335 | 39407 ft | 505 kts | 56° |
| 2026-04-20 13:11 | -35.04558 | 148.91123 | 39405 ft | 505 kts | 56° |
| 2026-04-20 13:11 | -35.00250 | 148.97910 | 39400 ft | 506 kts | 56° |
| 2026-04-20 13:12 | -34.96640 | 149.03589 | 39402 ft | 506 kts | 56° |
| 2026-04-20 13:12 | -34.92351 | 149.10321 | 39403 ft | 506 kts | 56° |
| 2026-04-20 13:13 | -34.88026 | 149.17100 | 39403 ft | 506 kts | 56° |
| 2026-04-20 13:13 | -34.83703 | 149.23860 | 39402 ft | 506 kts | 56° |
| 2026-04-20 13:13 | -34.81509 | 149.27286 | 39254 ft | 507 kts | 56° |
| 2026-04-20 13:14 | -34.79363 | 149.30634 | 38835 ft | 508 kts | 56° |
| 2026-04-20 13:14 | -34.77195 | 149.34013 | 38112 ft | 506 kts | 56° |
| 2026-04-20 13:14 | -34.75040 | 149.37380 | 37312 ft | 504 kts | 58° |
| 2026-04-20 13:14 | -34.73134 | 149.40928 | 36510 ft | 498 kts | 66° |
| 2026-04-20 13:15 | -34.71517 | 149.44640 | 35728 ft | 496 kts | 68° |
| 2026-04-20 13:15 | -34.69913 | 149.48350 | 34922 ft | 496 kts | 68° |
| 2026-04-20 13:15 | -34.68300 | 149.52063 | 34081 ft | 496 kts | 68° |
| 2026-04-20 13:15 | -34.66691 | 149.55754 | 33169 ft | 495 kts | 68° |
| 2026-04-20 13:16 | -34.65075 | 149.59452 | 32274 ft | 495 kts | 68° |
| 2026-04-20 13:16 | -34.63460 | 149.63143 | 31404 ft | 495 kts | 68° |
| 2026-04-20 13:16 | -34.61842 | 149.66837 | 30570 ft | 495 kts | 68° |
| 2026-04-20 13:16 | -34.60228 | 149.70518 | 29611 ft | 494 kts | 67° |
| 2026-04-20 13:17 | -34.58612 | 149.74199 | 28679 ft | 493 kts | 67° |
| 2026-04-20 13:17 | -34.56998 | 149.77872 | 27768 ft | 492 kts | 67° |
| 2026-04-20 13:17 | -34.55391 | 149.81525 | 26885 ft | 490 kts | 66° |
| 2026-04-20 13:17 | -34.53787 | 149.85165 | 26162 ft | 485 kts | 66° |
| 2026-04-20 13:18 | -34.52226 | 149.88695 | 25971 ft | 468 kts | 66° |
| 2026-04-20 13:18 | -34.50713 | 149.92113 | 25819 ft | 451 kts | 66° |
| 2026-04-20 13:18 | -34.49253 | 149.95408 | 25668 ft | 436 kts | 67° |
| 2026-04-20 13:18 | -34.47832 | 149.98627 | 25556 ft | 433 kts | 67° |
| 2026-04-20 13:19 | -34.46430 | 150.01799 | 25444 ft | 419 kts | 67° |
| 2026-04-20 13:19 | -34.45075 | 150.04855 | 25403 ft | 403 kts | 67° |
| 2026-04-20 13:19 | -34.43771 | 150.07789 | 25325 ft | 389 kts | 67° |
| 2026-04-20 13:19 | -34.42498 | 150.10665 | 24776 ft | 389 kts | 67° |
| 2026-04-20 13:20 | -34.41191 | 150.13640 | 23988 ft | 416 kts | 66° |
| 2026-04-20 13:20 | -34.39806 | 150.16785 | 23047 ft | 426 kts | 66° |
| 2026-04-20 13:20 | -34.38394 | 150.19962 | 22133 ft | 430 kts | 66° |
| 2026-04-20 13:20 | -34.36964 | 150.23166 | 21242 ft | 433 kts | 65° |
| 2026-04-20 13:21 | -34.35529 | 150.26377 | 20372 ft | 435 kts | 65° |
| 2026-04-20 13:21 | -34.34092 | 150.29592 | 19538 ft | 436 kts | 65° |
| 2026-04-20 13:21 | -34.32649 | 150.32820 | 18716 ft | 435 kts | 65° |
| 2026-04-20 13:21 | -34.31210 | 150.36040 | 17805 ft | 435 kts | 65° |
| 2026-04-20 13:22 | -34.29774 | 150.39249 | 16896 ft | 433 kts | 65° |
| 2026-04-20 13:22 | -34.28342 | 150.42447 | 16020 ft | 431 kts | 65° |
| 2026-04-20 13:22 | -34.26917 | 150.45630 | 15166 ft | 429 kts | 65° |
| 2026-04-20 13:22 | -34.25522 | 150.48748 | 14426 ft | 424 kts | 64° |
| 2026-04-20 13:23 | -34.24133 | 150.51853 | 13793 ft | 416 kts | 64° |
| 2026-04-20 13:23 | -34.22756 | 150.54926 | 13152 ft | 407 kts | 64° |
| 2026-04-20 13:23 | -34.21420 | 150.57907 | 12520 ft | 400 kts | 64° |
| 2026-04-20 13:23 | -34.20106 | 150.60836 | 11894 ft | 393 kts | 64° |
| 2026-04-20 13:24 | -34.18813 | 150.63717 | 11275 ft | 387 kts | 64° |
| 2026-04-20 13:24 | -34.17554 | 150.66518 | 10688 ft | 382 kts | 64° |
| 2026-04-20 13:24 | -34.16299 | 150.69305 | 10318 ft | 368 kts | 64° |
| 2026-04-20 13:24 | -34.15115 | 150.71924 | 10089 ft | 344 kts | 65° |
| 2026-04-20 13:25 | -34.14002 | 150.74386 | 9850 ft | 323 kts | 65° |
| 2026-04-20 13:25 | -34.12959 | 150.76696 | 9609 ft | 305 kts | 65° |
| 2026-04-20 13:25 | -34.11974 | 150.78875 | 9379 ft | 288 kts | 66° |
| 2026-04-20 13:25 | -34.11039 | 150.80953 | 8900 ft | 282 kts | 66° |
| 2026-04-20 13:26 | -34.10087 | 150.83074 | 8638 ft | 287 kts | 66° |
| 2026-04-20 13:26 | -34.09145 | 150.85173 | 8300 ft | 281 kts | 66° |
| 2026-04-20 13:26 | -34.08219 | 150.87230 | 7992 ft | 279 kts | 66° |
| 2026-04-20 13:26 | -34.07294 | 150.89284 | 7657 ft | 278 kts | 66° |
| 2026-04-20 13:27 | -34.06378 | 150.91316 | 7319 ft | 275 kts | 66° |
| 2026-04-20 13:27 | -34.05468 | 150.93334 | 6985 ft | 273 kts | 67° |
| 2026-04-20 13:27 | -34.04559 | 150.95346 | 6640 ft | 271 kts | 67° |
| 2026-04-20 13:27 | -34.03662 | 150.97337 | 6276 ft | 269 kts | 67° |
| 2026-04-20 13:28 | -34.03107 | 150.99403 | 6067 ft | 253 kts | 92° |
| 2026-04-20 13:28 | -34.03389 | 151.01470 | 6001 ft | 249 kts | 117° |
| 2026-04-20 13:28 | -34.04366 | 151.03129 | 5997 ft | 239 kts | 136° |
| 2026-04-20 13:28 | -34.05493 | 151.04534 | 5992 ft | 225 kts | 136° |
| 2026-04-20 13:29 | -34.06544 | 151.05863 | 5992 ft | 216 kts | 136° |
| 2026-04-20 13:29 | -34.07588 | 151.07110 | 5994 ft | 207 kts | 144° |
| 2026-04-20 13:29 | -34.08841 | 151.07930 | 5997 ft | 206 kts | 162° |
| 2026-04-20 13:29 | -34.10251 | 151.08312 | 5996 ft | 209 kts | 168° |
| 2026-04-20 13:30 | -34.11668 | 151.08664 | 5968 ft | 205 kts | 168° |
| 2026-04-20 13:30 | -34.13061 | 151.09022 | 5738 ft | 205 kts | 167° |
| 2026-04-20 13:30 | -34.14455 | 151.09387 | 5466 ft | 205 kts | 168° |
| 2026-04-20 13:30 | -34.15860 | 151.09754 | 5113 ft | 209 kts | 168° |
| 2026-04-20 13:31 | -34.17303 | 151.10130 | 4620 ft | 216 kts | 168° |
| 2026-04-20 13:31 | -34.18802 | 151.10521 | 4123 ft | 224 kts | 168° |
| 2026-04-20 13:31 | -34.20364 | 151.10923 | 3955 ft | 236 kts | 168° |
| 2026-04-20 13:31 | -34.21955 | 151.11381 | 3877 ft | 234 kts | 158° |
| 2026-04-20 13:32 | -34.23217 | 151.12549 | 3783 ft | 229 kts | 128° |
| 2026-04-20 13:32 | -34.23782 | 151.14330 | 3489 ft | 234 kts | 98° |
| 2026-04-20 13:32 | -34.23466 | 151.16247 | 3281 ft | 237 kts | 66° |
| 2026-04-20 13:32 | -34.22400 | 151.17738 | 3060 ft | 239 kts | 43° |
| 2026-04-20 13:33 | -34.21100 | 151.19036 | 2983 ft | 244 kts | 43° |
| 2026-04-20 13:33 | -34.19791 | 151.20330 | 2992 ft | 244 kts | 43° |
| 2026-04-20 13:33 | -34.18485 | 151.21625 | 2979 ft | 238 kts | 43° |
| 2026-04-20 13:33 | -34.17112 | 151.22634 | 2979 ft | 227 kts | 20° |
| 2026-04-20 13:34 | -34.15551 | 151.22918 | 2989 ft | 233 kts | 359° |
| 2026-04-20 13:34 | -34.13983 | 151.22716 | 2980 ft | 220 kts | 348° |
| 2026-04-20 13:34 | -34.12514 | 151.22352 | 2993 ft | 215 kts | 346° |
| 2026-04-20 13:34 | -34.11063 | 151.21964 | 3009 ft | 212 kts | 346° |
| 2026-04-20 13:35 | -34.09617 | 151.21580 | 2768 ft | 214 kts | 347° |
| 2026-04-20 13:35 | -34.08195 | 151.21204 | 2431 ft | 203 kts | 346° |
| 2026-04-20 13:35 | -34.06852 | 151.20847 | 2152 ft | 191 kts | 347° |
| 2026-04-20 13:35 | -34.05594 | 151.20514 | 1898 ft | 179 kts | 346° |
| 2026-04-20 13:36 | -34.04400 | 151.20197 | 1661 ft | 175 kts | 346° |
| 2026-04-20 13:36 | -34.03223 | 151.19884 | 1416 ft | 170 kts | 347° |
| 2026-04-20 13:36 | -34.02109 | 151.19590 | 1204 ft | 159 kts | 346° |
| 2026-04-20 13:36 | -34.01055 | 151.19303 | 977 ft | 151 kts | 345° |
| 2026-04-20 13:37 | -34.00063 | 151.18992 | 718 ft | 143 kts | 345° |
| 2026-04-20 13:37 | -33.99131 | 151.18773 | 540 ft | 132 kts | 346° |
| 2026-04-20 13:37 | -33.98217 | 151.18560 | 412 ft | 138 kts | 342° |
| 2026-04-20 13:37 | -33.97303 | 151.18308 | 238 ft | 132 kts | 341° |
| 2026-04-20 13:38 | -33.96386 | 151.18062 | 62 ft | 134 kts | 342° |
| 2026-04-20 13:38 | -33.95564 | 151.17830 | 24 ft | 97 kts | 348° |
| 2026-04-20 13:38 | -33.95091 | 151.17709 | 19 ft | 50 kts | 351° |
| 2026-04-20 13:38 | -33.94826 | 151.17650 | 22 ft | 25 kts | 353° |
| 2026-04-20 13:39 | -33.94644 | 151.17650 | 22 ft | 25 kts | 9° |
| 2026-04-20 13:39 | -33.94524 | 151.17680 | 28 ft | 17 kts | 13° |
| 2026-04-20 13:39 | -33.94486 | 151.17693 | 25 ft | 0 kts | 17° |
| 2026-04-20 13:40 | -33.94476 | 151.17697 | 26 ft | 4 kts | 17° |
| 2026-04-20 13:40 | -33.94415 | 151.17720 | 24 ft | 14 kts | 17° |
| 2026-04-20 13:41 | -33.94299 | 151.17725 | 21 ft | 19 kts | 345° |
| 2026-04-20 13:41 | -33.94184 | 151.17688 | 21 ft | 19 kts | 345° |
| 2026-04-20 13:41 | -33.94051 | 151.17651 | 21 ft | 21 kts | 348° |
| 2026-04-20 13:41 | -33.93908 | 151.17617 | 19 ft | 18 kts | 1° |
| 2026-04-20 13:42 | -33.93852 | 151.17731 | 20 ft | 18 kts | 75° |
| 2026-04-20 13:42 | -33.93786 | 151.18011 | 30 ft | 14 kts | 74° |
| 2026-04-20 13:42 | -33.93711 | 151.18068 | 30 ft | 16 kts | 345° |
| 2026-04-20 13:43 | -33.93604 | 151.18057 | 30 ft | 12 kts | 5° |
| 2026-04-20 13:43 | -33.93560 | 151.18042 | 30 ft | 3 kts | 278° |
| 2026-04-20 13:43 | -33.93556 | 151.18002 | 30 ft | 5 kts | 277° |
| 2026-04-20 13:43 | -33.93556 | 151.17999 | 30 ft | 0 kts | 277° |